createdAt,value
2022-09-20T00:01:35.878Z,99.90
2022-09-20T00:04:06.832Z,99.90
2022-09-20T00:06:36.637Z,99.90
2022-09-20T00:09:06.235Z,99.90
2022-09-20T00:11:37.851Z,99.90
2022-09-20T00:14:08.640Z,99.90
2022-09-20T00:16:40.533Z,99.90
2022-09-20T00:19:16.646Z,99.90
2022-09-20T00:24:13.500Z,99.90
2022-09-20T00:26:43.163Z,99.90
2022-09-20T00:29:12.696Z,99.90
2022-09-20T00:31:42.775Z,99.90
2022-09-20T00:34:29.677Z,99.90
2022-09-20T00:36:57.950Z,99.90
2022-09-20T00:41:56.325Z,99.90
2022-09-20T00:44:59.452Z,99.90
2022-09-20T00:47:38.639Z,99.90
2022-09-20T00:50:25.254Z,99.90
2022-09-20T00:52:59.076Z,99.90
2022-09-20T00:55:28.829Z,99.90
2022-09-20T00:57:59.627Z,99.90
2022-09-20T01:00:28.954Z,99.90
2022-09-20T01:03:02.470Z,99.90
2022-09-20T01:07:59.602Z,99.90
2022-09-20T01:12:58.235Z,99.90
2022-09-20T01:15:29.573Z,99.90
2022-09-20T01:18:01.151Z,99.90
2022-09-20T01:20:32.536Z,99.90
2022-09-20T01:23:28.677Z,99.90
2022-09-20T01:26:42.753Z,99.90
2022-09-20T01:29:30.764Z,99.90
2022-09-20T01:32:06.230Z,99.90
2022-09-20T01:34:37.614Z,99.90
2022-09-20T01:37:14.959Z,99.90
2022-09-20T01:39:55.137Z,99.90
2022-09-20T01:42:31.238Z,99.90
2022-09-20T01:45:07.102Z,99.90
2022-09-20T01:47:44.815Z,99.90
2022-09-20T01:50:26.904Z,99.90
2022-09-20T01:53:28.520Z,99.90
2022-09-20T01:56:19.492Z,99.90
2022-09-20T01:59:25.035Z,99.90
2022-09-20T02:02:11.247Z,99.90
2022-09-20T02:05:35.204Z,99.90
2022-09-20T02:08:35.488Z,99.90
2022-09-20T02:11:14.851Z,99.90
2022-09-20T02:14:06.348Z,99.90
2022-09-20T02:16:52.077Z,99.90
2022-09-20T02:19:51.369Z,99.90
2022-09-20T02:22:50.978Z,99.90
2022-09-20T02:25:46.074Z,99.90
2022-09-20T02:28:30.403Z,99.90
2022-09-20T02:31:15.206Z,99.90
2022-09-20T02:34:10.204Z,99.90
2022-09-20T02:36:54.030Z,99.90
2022-09-20T02:39:27.815Z,99.90
2022-09-20T02:42:10.152Z,99.90
2022-09-20T02:45:03.888Z,99.90
2022-09-20T02:47:38.087Z,99.90
2022-09-20T02:50:29.778Z,99.90
2022-09-20T02:53:15.739Z,99.90
2022-09-20T02:55:59.805Z,99.90
2022-09-20T02:58:47.987Z,99.90
2022-09-20T03:01:33.669Z,99.90
2022-09-20T03:04:24.538Z,99.90
2022-09-20T03:07:02.634Z,99.90
2022-09-20T03:09:44.269Z,99.90
2022-09-20T03:12:27.250Z,99.90
2022-09-20T03:15:17.238Z,99.90
2022-09-20T03:17:59.192Z,99.90
2022-09-20T03:20:38.386Z,99.90
2022-09-20T03:23:23.882Z,99.90
2022-09-20T03:25:59.381Z,99.90
2022-09-20T03:28:58.251Z,99.90
2022-09-20T03:31:42.960Z,99.90
2022-09-20T03:34:31.156Z,99.90
2022-09-20T03:37:24.016Z,99.90
2022-09-20T03:40:21.017Z,99.90
2022-09-20T03:42:54.013Z,99.90
2022-09-20T03:45:41.506Z,99.90
2022-09-20T03:48:52.816Z,99.90
2022-09-20T03:51:33.793Z,99.90
2022-09-20T03:54:48.671Z,99.90
2022-09-20T03:57:36.106Z,99.90
2022-09-20T04:00:23.956Z,99.90
2022-09-20T04:03:11.579Z,99.90
2022-09-20T04:05:56.678Z,99.90
2022-09-20T04:08:49.130Z,99.90
2022-09-20T04:11:28.946Z,99.90
2022-09-20T04:14:10.653Z,99.90
2022-09-20T04:16:49.380Z,99.90
2022-09-20T04:19:32.188Z,99.90
2022-09-20T04:22:03.160Z,99.90
2022-09-20T04:24:41.815Z,99.90
2022-09-20T04:27:17.843Z,99.90
2022-09-20T04:29:54.104Z,99.90
2022-09-20T04:32:32.241Z,99.90
2022-09-20T04:35:36.884Z,99.90
2022-09-20T04:38:10.831Z,99.90
2022-09-20T04:41:01.922Z,99.90
2022-09-20T04:44:01.884Z,99.90
2022-09-20T04:47:19.495Z,99.90
2022-09-20T04:50:42.787Z,99.90
2022-09-20T04:53:58.900Z,99.90
2022-09-20T04:56:48.632Z,99.90
2022-09-20T04:59:30.956Z,99.90
2022-09-20T05:02:44.619Z,99.90
2022-09-20T05:06:03.118Z,99.90
2022-09-20T05:09:22.817Z,99.90
2022-09-20T05:12:27.244Z,99.90
2022-09-20T05:15:43.015Z,99.90
2022-09-20T05:19:03.077Z,99.90
2022-09-20T05:21:51.353Z,99.90
2022-09-20T05:24:38.394Z,99.90
2022-09-20T05:27:28.479Z,99.90
2022-09-20T05:30:06.633Z,99.90
2022-09-20T05:32:46.097Z,99.90
2022-09-20T05:35:23.876Z,99.90
2022-09-20T05:38:07.881Z,99.90
2022-09-20T05:41:04.630Z,99.90
2022-09-20T05:43:36.170Z,99.90
2022-09-20T05:46:17.907Z,99.90
2022-09-20T05:48:57.900Z,99.90
2022-09-20T05:51:45.782Z,99.90
2022-09-20T05:55:07.762Z,99.90
2022-09-20T05:57:56.416Z,99.90
2022-09-20T06:00:30.987Z,99.90
2022-09-20T06:03:12.229Z,99.90
2022-09-20T06:05:54.858Z,99.90
2022-09-20T06:09:06.467Z,99.90
2022-09-20T06:12:06.798Z,99.90
2022-09-20T06:14:46.780Z,99.90
2022-09-20T06:17:27.140Z,99.90
2022-09-20T06:20:14.704Z,99.90
2022-09-20T06:22:46.901Z,99.90
2022-09-20T06:25:22.852Z,99.90
2022-09-20T06:27:56.516Z,99.90
2022-09-20T06:30:28.956Z,99.90
2022-09-20T06:33:00.219Z,99.90
2022-09-20T06:35:38.574Z,99.90
2022-09-20T06:38:47.263Z,99.90
2022-09-20T06:41:28.353Z,99.90
2022-09-20T06:43:59.505Z,99.90
2022-09-20T06:46:29.312Z,99.90
2022-09-20T06:48:58.392Z,99.90
2022-09-20T06:51:29.213Z,99.90
2022-09-20T06:53:58.687Z,99.90
2022-09-20T06:56:30.476Z,99.90
2022-09-20T06:59:00.040Z,99.90
2022-09-20T07:01:30.659Z,99.90
2022-09-20T07:03:59.689Z,99.90
2022-09-20T07:08:57.449Z,99.90
2022-09-20T07:11:25.923Z,99.90
2022-09-20T07:13:56.020Z,99.90
2022-09-20T07:16:26.338Z,99.90
2022-09-20T07:23:54.003Z,99.90
2022-09-20T07:26:25.471Z,99.90
2022-09-20T07:28:54.041Z,99.90
2022-09-20T07:31:27.327Z,99.90
2022-09-20T07:36:24.852Z,99.90
2022-09-20T07:38:54.424Z,99.90
2022-09-20T07:41:23.665Z,99.90
2022-09-20T07:46:23.397Z,99.90
2022-09-20T07:48:54.352Z,99.90
2022-09-20T07:53:55.400Z,99.90
2022-09-20T07:56:23.696Z,99.90
2022-09-20T07:58:52.848Z,99.90
2022-09-20T08:01:22.482Z,99.90
2022-09-20T08:03:52.133Z,99.90
2022-09-20T08:08:51.708Z,99.90
2022-09-20T08:11:27.715Z,99.90
2022-09-20T08:14:13.116Z,99.90
2022-09-20T08:16:43.084Z,99.90
2022-09-20T08:19:17.712Z,99.90
2022-09-20T08:21:46.378Z,99.90
2022-09-20T08:24:16.315Z,99.90
2022-09-20T08:26:45.460Z,99.90
2022-09-20T08:29:15.181Z,99.90
2022-09-20T08:31:43.613Z,99.90
2022-09-20T08:34:15.137Z,99.90
2022-09-20T08:36:46.765Z,99.90
2022-09-20T08:42:16.060Z,99.90
2022-09-20T08:45:00.429Z,99.90
2022-09-20T08:47:32.206Z,99.90
2022-09-20T08:50:17.593Z,99.90
2022-09-20T08:52:48.475Z,99.90
2022-09-20T08:55:20.106Z,99.90
2022-09-20T08:57:51.098Z,99.90
2022-09-20T09:00:22.556Z,99.90
2022-09-20T09:02:53.234Z,99.90
2022-09-20T09:05:35.696Z,99.90
2022-09-20T09:08:10.314Z,99.90
2022-09-20T09:10:43.069Z,99.90
2022-09-20T09:13:22.996Z,99.90
2022-09-20T09:15:58.207Z,99.90
2022-09-20T09:18:35.028Z,99.90
2022-09-20T09:21:07.688Z,99.90
2022-09-20T09:23:43.336Z,99.90
2022-09-20T09:26:21.107Z,99.90
2022-09-20T09:29:10.628Z,99.90
2022-09-20T09:31:39.775Z,99.90
2022-09-20T09:34:26.275Z,99.90
2022-09-20T09:36:56.624Z,99.90
2022-09-20T09:39:28.240Z,99.90
2022-09-20T09:44:32.666Z,99.90
2022-09-20T09:47:01.973Z,99.90
2022-09-20T09:49:34.078Z,99.90
2022-09-20T09:52:14.305Z,99.90
2022-09-20T09:54:48.823Z,99.90
2022-09-20T09:57:34.435Z,99.00
2022-09-20T10:00:18.132Z,98.00
2022-09-20T10:03:22.137Z,97.30
2022-09-20T10:06:08.059Z,96.30
2022-09-20T10:08:51.046Z,96.10
2022-09-20T10:11:33.662Z,96.40
2022-09-20T10:14:18.261Z,96.70
2022-09-20T10:17:06.189Z,96.90
2022-09-20T10:19:57.268Z,96.90
2022-09-20T10:22:38.127Z,96.70
2022-09-20T10:25:21.245Z,95.80
2022-09-20T10:28:07.784Z,96.80
2022-09-20T10:30:56.901Z,98.30
2022-09-20T10:33:37.434Z,99.90
2022-09-20T10:36:18.059Z,99.90
2022-09-20T10:38:53.116Z,99.90
2022-09-20T10:42:00.604Z,99.90
2022-09-20T10:45:06.845Z,99.90
2022-09-20T10:47:41.699Z,99.90
2022-09-20T10:50:19.610Z,99.90
2022-09-20T10:53:04.556Z,99.90
2022-09-20T10:55:48.654Z,99.90
2022-09-20T10:59:01.754Z,99.90
2022-09-20T11:01:39.753Z,99.90
2022-09-20T11:04:33.899Z,99.90
2022-09-20T11:07:12.599Z,99.90
2022-09-20T11:09:48.292Z,99.90
2022-09-20T11:12:25.983Z,99.90
2022-09-20T11:15:00.748Z,99.90
2022-09-20T11:17:35.684Z,99.90
2022-09-20T11:20:16.292Z,99.90
2022-09-20T11:22:49.316Z,99.90
2022-09-20T11:25:24.923Z,99.90
2022-09-20T11:28:04.048Z,99.90
2022-09-20T11:30:37.457Z,99.90
2022-09-20T11:33:15.159Z,99.90
2022-09-20T11:35:49.208Z,99.90
2022-09-20T11:38:24.891Z,99.90
2022-09-20T11:41:00.335Z,99.90
2022-09-20T11:43:30.275Z,99.90
2022-09-20T11:46:07.755Z,99.90
2022-09-20T11:48:43.681Z,99.90
2022-09-20T11:51:37.172Z,99.90
2022-09-20T11:54:49.890Z,99.90
2022-09-20T11:57:18.319Z,99.90
2022-09-20T11:59:54.260Z,99.90
2022-09-20T12:02:32.765Z,99.90
2022-09-20T12:05:02.224Z,99.90
2022-09-20T12:07:36.130Z,99.90
2022-09-20T12:10:09.096Z,99.90
2022-09-20T12:12:42.436Z,99.90
2022-09-20T12:15:26.705Z,99.90
2022-09-20T12:18:33.270Z,99.90
2022-09-20T12:21:15.401Z,99.90
2022-09-20T12:24:18.967Z,99.90
2022-09-20T12:26:53.494Z,99.90
2022-09-20T12:30:08.369Z,99.90
2022-09-20T12:33:01.069Z,99.90
2022-09-20T12:36:18.334Z,99.90
2022-09-20T12:39:00.197Z,99.90
2022-09-20T12:41:29.385Z,99.90
2022-09-20T12:44:06.504Z,99.90
2022-09-20T12:46:43.707Z,99.90
2022-09-20T12:49:49.028Z,99.90
2022-09-20T12:52:50.520Z,99.90
2022-09-20T12:55:55.335Z,99.90
2022-09-20T12:58:29.680Z,99.90
2022-09-20T13:01:33.426Z,99.90
2022-09-20T13:04:53.832Z,99.90
2022-09-20T13:07:44.093Z,99.90
2022-09-20T13:10:30.464Z,99.90
2022-09-20T13:13:13.707Z,99.90
2022-09-20T13:18:18.785Z,99.90
2022-09-20T13:20:47.292Z,99.90
2022-09-20T13:23:25.015Z,99.90
2022-09-20T13:25:54.382Z,99.90
2022-09-20T13:28:33.428Z,99.90
2022-09-20T13:31:35.657Z,99.90
2022-09-20T13:34:22.326Z,99.90
2022-09-20T13:36:56.327Z,99.90
2022-09-20T13:39:37.219Z,99.90
2022-09-20T13:42:16.247Z,99.90
2022-09-20T13:44:44.913Z,99.90
2022-09-20T13:47:25.191Z,99.90
2022-09-20T13:52:26.543Z,99.90
2022-09-20T13:54:56.353Z,99.90
2022-09-20T13:57:28.956Z,99.90
2022-09-20T13:59:58.163Z,99.90
2022-09-20T14:02:31.263Z,99.90
2022-09-20T14:05:02.559Z,99.90
2022-09-20T14:07:31.608Z,99.90
2022-09-20T14:10:01.638Z,99.90
2022-09-20T14:12:30.455Z,99.90
2022-09-20T14:14:59.368Z,99.90
2022-09-20T14:17:31.943Z,99.90
2022-09-20T14:20:00.538Z,99.90
2022-09-20T14:22:30.191Z,99.90
2022-09-20T14:25:03.200Z,99.90
2022-09-20T14:27:32.612Z,99.90
2022-09-20T14:32:45.139Z,99.90
2022-09-20T14:35:19.168Z,99.90
2022-09-20T14:37:51.452Z,99.90
2022-09-20T14:40:29.027Z,99.90
2022-09-20T14:42:59.630Z,99.90
2022-09-20T14:45:32.556Z,99.90
2022-09-20T14:48:09.617Z,99.90
2022-09-20T14:50:42.065Z,99.90
2022-09-20T14:53:27.652Z,99.90
2022-09-20T14:56:10.202Z,99.90
2022-09-20T14:59:20.187Z,99.90
2022-09-20T15:02:04.970Z,99.90
2022-09-20T15:04:35.370Z,99.90
2022-09-20T15:07:06.485Z,99.90
2022-09-20T15:09:35.780Z,99.90
2022-09-20T15:12:08.297Z,99.90
2022-09-20T15:14:38.068Z,99.90
2022-09-20T15:17:07.272Z,99.90
2022-09-20T15:19:35.487Z,99.90
2022-09-20T15:22:03.922Z,99.90
2022-09-20T15:29:30.893Z,99.90
2022-09-20T15:34:28.081Z,99.90
2022-09-20T15:36:57.291Z,99.90
2022-09-20T15:39:25.911Z,99.90
2022-09-20T15:41:54.948Z,99.90
2022-09-20T15:44:23.336Z,99.90
2022-09-20T15:46:53.227Z,99.90
2022-09-20T15:49:22.040Z,99.90
2022-09-20T15:51:50.469Z,99.90
2022-09-20T15:54:19.349Z,99.90
2022-09-20T15:56:47.621Z,99.90
2022-09-20T15:59:16.370Z,99.90
2022-09-20T16:01:48.030Z,99.90
2022-09-20T16:04:20.375Z,99.90
2022-09-20T16:06:50.747Z,99.90
2022-09-20T16:09:19.575Z,99.90
2022-09-20T16:11:48.615Z,99.90
2022-09-20T16:19:20.768Z,99.90
2022-09-20T16:21:57.666Z,99.90
2022-09-20T16:26:57.136Z,99.90
2022-09-20T16:29:25.900Z,99.90
2022-09-20T16:31:55.811Z,99.90
2022-09-20T16:34:29.603Z,99.90
2022-09-20T16:37:01.312Z,99.90
2022-09-20T16:39:31.390Z,99.90
2022-09-20T16:42:03.505Z,99.90
2022-09-20T16:44:32.490Z,99.90
2022-09-20T16:49:29.861Z,99.90
2022-09-20T16:51:59.392Z,99.90
2022-09-20T16:57:00.661Z,99.90
2022-09-20T16:59:28.949Z,99.90
2022-09-20T17:04:26.175Z,99.90
2022-09-20T17:06:54.511Z,99.90
2022-09-20T17:09:24.220Z,99.90
2022-09-20T17:14:22.446Z,99.90
2022-09-20T17:16:51.218Z,99.90
2022-09-20T17:19:21.455Z,99.90
2022-09-20T17:21:51.699Z,99.90
2022-09-20T17:24:21.567Z,99.90
2022-09-20T17:26:53.456Z,99.90
2022-09-20T17:29:22.222Z,99.90
2022-09-20T17:31:55.639Z,99.90
2022-09-20T17:36:55.333Z,99.90
2022-09-20T17:39:24.417Z,99.90
2022-09-20T17:41:54.259Z,99.90
2022-09-20T17:44:24.000Z,99.90
2022-09-20T17:49:24.175Z,99.90
2022-09-20T17:51:54.525Z,99.90
2022-09-20T17:54:24.325Z,99.90
2022-09-20T17:56:55.700Z,99.90
2022-09-20T18:01:54.239Z,99.90
2022-09-20T18:06:54.892Z,99.90
2022-09-20T18:09:27.127Z,99.90
2022-09-20T18:11:57.592Z,99.90
2022-09-20T18:14:28.387Z,99.90
2022-09-20T18:17:00.984Z,99.90
2022-09-20T18:19:33.021Z,99.90
2022-09-20T18:22:02.414Z,99.90
2022-09-20T18:24:31.666Z,99.90
2022-09-20T18:27:01.576Z,99.90
2022-09-20T18:32:01.850Z,99.90
2022-09-20T18:37:03.868Z,99.90
2022-09-20T18:39:34.750Z,99.90
2022-09-20T18:42:07.960Z,99.90
2022-09-20T18:44:36.496Z,99.90
2022-09-20T18:49:34.367Z,99.90
2022-09-20T18:52:03.623Z,99.90
2022-09-20T18:54:32.119Z,99.90
2022-09-20T18:57:03.111Z,99.90
2022-09-20T19:02:19.760Z,99.90
2022-09-20T19:05:11.895Z,99.90
2022-09-20T19:07:54.672Z,99.90
2022-09-20T19:10:38.166Z,99.90
2022-09-20T19:13:32.356Z,99.90
2022-09-20T19:16:20.714Z,99.90
2022-09-20T19:19:08.444Z,99.90
2022-09-20T19:21:48.320Z,99.90
2022-09-20T19:24:31.888Z,99.90
2022-09-20T19:29:31.412Z,99.90
2022-09-20T19:32:01.285Z,99.90
2022-09-20T19:34:32.187Z,99.90
2022-09-20T19:37:18.381Z,99.90
2022-09-20T19:40:03.231Z,99.90
2022-09-20T19:42:47.526Z,99.90
2022-09-20T19:45:28.950Z,99.90
2022-09-20T19:48:07.447Z,99.90
2022-09-20T19:50:45.279Z,99.90
2022-09-20T19:53:14.817Z,99.90
2022-09-20T19:55:48.093Z,99.90
2022-09-20T20:00:48.291Z,99.90
2022-09-20T20:03:17.611Z,99.90
2022-09-20T20:05:56.099Z,99.90
2022-09-20T20:08:36.963Z,99.90
2022-09-20T20:11:15.919Z,99.90
2022-09-20T20:14:04.621Z,99.90
2022-09-20T20:16:46.775Z,99.90
2022-09-20T20:19:38.957Z,99.90
2022-09-20T20:22:19.866Z,99.90
2022-09-20T20:24:52.496Z,99.90
2022-09-20T20:27:21.014Z,99.90
2022-09-20T20:29:49.342Z,99.90
2022-09-20T20:32:18.894Z,99.90
2022-09-20T20:34:47.096Z,99.90
2022-09-20T20:37:15.707Z,99.90
2022-09-20T20:39:43.880Z,99.90
2022-09-20T20:42:12.919Z,99.90
2022-09-20T20:44:41.584Z,99.90
2022-09-20T20:49:39.603Z,99.90
2022-09-20T20:54:37.394Z,99.90
2022-09-20T20:59:34.365Z,99.90
2022-09-20T21:02:07.652Z,99.90
2022-09-20T21:07:06.801Z,99.90
2022-09-20T21:09:35.059Z,99.90
2022-09-20T21:12:04.029Z,99.90
2022-09-20T21:14:33.769Z,99.90
2022-09-20T21:17:02.409Z,99.90
2022-09-20T21:24:29.047Z,99.90
2022-09-20T21:29:25.722Z,99.90
2022-09-20T21:31:53.891Z,99.90
2022-09-20T21:34:22.116Z,99.90
2022-09-20T21:36:50.390Z,99.90
2022-09-20T21:39:18.540Z,99.90
2022-09-20T21:41:48.662Z,99.90
2022-09-20T21:44:17.104Z,99.90
2022-09-20T21:46:45.280Z,99.90
2022-09-20T21:49:14.470Z,99.90
2022-09-20T21:51:43.972Z,99.90
2022-09-20T21:54:12.559Z,99.90
2022-09-20T21:56:41.633Z,99.90
2022-09-20T21:59:11.179Z,99.90
2022-09-20T22:01:41.264Z,99.90
2022-09-20T22:04:11.410Z,99.90
2022-09-20T22:06:42.004Z,99.90
2022-09-20T22:09:12.594Z,99.90
2022-09-20T22:11:43.552Z,99.90
2022-09-20T22:14:14.670Z,99.90
2022-09-20T22:16:45.455Z,99.90
2022-09-20T22:19:16.836Z,99.90
2022-09-20T22:21:47.731Z,99.90
2022-09-20T22:24:17.087Z,99.90
2022-09-20T22:26:47.846Z,99.90
2022-09-20T22:29:18.396Z,99.90
2022-09-20T22:31:50.268Z,99.90
2022-09-20T22:34:20.698Z,99.90
2022-09-20T22:39:18.053Z,99.90
2022-09-20T22:41:47.748Z,99.90
2022-09-20T22:44:17.403Z,99.90
2022-09-20T22:49:14.203Z,99.90
2022-09-20T22:54:14.175Z,99.90
2022-09-20T22:56:42.697Z,99.90
2022-09-20T22:59:12.785Z,99.90
2022-09-20T23:01:45.831Z,99.90
2022-09-20T23:04:16.871Z,99.90
2022-09-20T23:06:47.972Z,99.90
2022-09-20T23:09:18.667Z,99.90
2022-09-20T23:11:47.488Z,99.90
2022-09-20T23:14:18.969Z,99.90
2022-09-20T23:16:49.499Z,99.90
2022-09-20T23:19:18.504Z,99.90
2022-09-20T23:21:46.951Z,99.90
2022-09-20T23:24:16.462Z,99.90
2022-09-20T23:26:45.589Z,99.90
2022-09-20T23:29:16.220Z,99.90
2022-09-20T23:31:47.142Z,99.90
2022-09-20T23:34:18.380Z,99.90
2022-09-20T23:36:47.278Z,99.90
2022-09-20T23:39:16.324Z,99.90
2022-09-20T23:41:49.915Z,99.90
2022-09-20T23:44:19.294Z,99.90
2022-09-20T23:49:17.490Z,99.90
2022-09-20T23:56:42.870Z,99.90
